sensor_id;sensor_type;location;lat;lon;timestamp;P1;durP1;ratioP1;P2;durP2;ratioP2
67363;SDS011;54250;45.572;38.086;2022-11-15T00:01:26;13.70;;;6.07;;
67363;SDS011;54250;45.572;38.086;2022-11-15T00:04:10;12.05;;;6.45;;
67363;SDS011;54250;45.572;38.086;2022-11-15T00:06:55;14.25;;;7.40;;
67363;SDS011;54250;45.572;38.086;2022-11-15T00:09:39;15.15;;;7.68;;
67363;SDS011;54250;45.572;38.086;2022-11-15T00:12:24;10.57;;;6.43;;
67363;SDS011;54250;45.572;38.086;2022-11-15T00:15:08;18.30;;;8.55;;
67363;SDS011;54250;45.572;38.086;2022-11-15T00:17:53;23.70;;;5.60;;
67363;SDS011;54250;45.572;38.086;2022-11-15T00:20:37;18.80;;;7.70;;
67363;SDS011;54250;45.572;38.086;2022-11-15T00:23:22;16.17;;;8.30;;
67363;SDS011;54250;45.572;38.086;2022-11-15T00:26:07;20.20;;;9.73;;
67363;SDS011;54250;45.572;38.086;2022-11-15T00:28:55;30.98;;;13.20;;
67363;SDS011;54250;45.572;38.086;2022-11-15T00:31:40;22.30;;;10.10;;
67363;SDS011;54250;45.572;38.086;2022-11-15T00:34:24;15.73;;;8.57;;
67363;SDS011;54250;45.572;38.086;2022-11-15T00:37:08;25.50;;;10.05;;
67363;SDS011;54250;45.572;38.086;2022-11-15T00:39:53;14.98;;;9.77;;
67363;SDS011;54250;45.572;38.086;2022-11-15T00:42:38;17.58;;;8.77;;
67363;SDS011;54250;45.572;38.086;2022-11-15T00:45:22;16.13;;;9.25;;
67363;SDS011;54250;45.572;38.086;2022-11-15T00:48:07;70.78;;;6.18;;
67363;SDS011;54250;45.572;38.086;2022-11-15T00:50:52;11.70;;;7.32;;
67363;SDS011;54250;45.572;38.086;2022-11-15T00:53:36;9.85;;;3.45;;
67363;SDS011;54250;45.572;38.086;2022-11-15T00:56:21;12.40;;;5.22;;
67363;SDS011;54250;45.572;38.086;2022-11-15T00:59:05;12.55;;;3.47;;
67363;SDS011;54250;45.572;38.086;2022-11-15T01:01:49;8.05;;;5.55;;
67363;SDS011;54250;45.572;38.086;2022-11-15T01:04:34;4.07;;;3.40;;
67363;SDS011;54250;45.572;38.086;2022-11-15T01:07:18;5.47;;;3.78;;
67363;SDS011;54250;45.572;38.086;2022-11-15T01:10:03;12.80;;;3.33;;
67363;SDS011;54250;45.572;38.086;2022-11-15T01:12:49;2.80;;;2.20;;
67363;SDS011;54250;45.572;38.086;2022-11-15T01:15:33;6.80;;;4.57;;
67363;SDS011;54250;45.572;38.086;2022-11-15T01:18:18;10.10;;;3.10;;
67363;SDS011;54250;45.572;38.086;2022-11-15T01:21:21;7.55;;;3.50;;
67363;SDS011;54250;45.572;38.086;2022-11-15T01:24:05;4.18;;;3.33;;
67363;SDS011;54250;45.572;38.086;2022-11-15T01:26:50;3.17;;;2.45;;
67363;SDS011;54250;45.572;38.086;2022-11-15T01:29:34;2.25;;;1.77;;
67363;SDS011;54250;45.572;38.086;2022-11-15T01:32:19;7.68;;;2.30;;
67363;SDS011;54250;45.572;38.086;2022-11-15T01:35:04;4.05;;;3.33;;
67363;SDS011;54250;45.572;38.086;2022-11-15T01:37:48;2.22;;;1.73;;
67363;SDS011;54250;45.572;38.086;2022-11-15T01:40:33;1.35;;;1.25;;
67363;SDS011;54250;45.572;38.086;2022-11-15T01:43:27;6.75;;;2.40;;
67363;SDS011;54250;45.572;38.086;2022-11-15T01:49:05;3.75;;;2.90;;
67363;SDS011;54250;45.572;38.086;2022-11-15T01:52:06;4.95;;;3.78;;
67363;SDS011;54250;45.572;38.086;2022-11-15T01:55:02;4.20;;;2.70;;
67363;SDS011;54250;45.572;38.086;2022-11-15T01:57:59;4.97;;;3.47;;
67363;SDS011;54250;45.572;38.086;2022-11-15T02:00:46;2.53;;;2.05;;
67363;SDS011;54250;45.572;38.086;2022-11-15T02:03:34;8.23;;;4.20;;
67363;SDS011;54250;45.572;38.086;2022-11-15T02:06:35;6.53;;;1.80;;
67363;SDS011;54250;45.572;38.086;2022-11-15T02:09:20;3.78;;;2.30;;
67363;SDS011;54250;45.572;38.086;2022-11-15T02:12:05;4.47;;;2.47;;
67363;SDS011;54250;45.572;38.086;2022-11-15T02:14:53;1.15;;;1.05;;
67363;SDS011;54250;45.572;38.086;2022-11-15T02:23:59;2.15;;;2.00;;
67363;SDS011;54250;45.572;38.086;2022-11-15T02:30:21;3.08;;;2.28;;
67363;SDS011;54250;45.572;38.086;2022-11-15T02:36:34;6.05;;;2.65;;
67363;SDS011;54250;45.572;38.086;2022-11-15T02:43:00;2.20;;;1.67;;
67363;SDS011;54250;45.572;38.086;2022-11-15T02:46:15;1.73;;;1.42;;
67363;SDS011;54250;45.572;38.086;2022-11-15T02:49:33;2.30;;;1.73;;
67363;SDS011;54250;45.572;38.086;2022-11-15T02:52:22;1.02;;;1.00;;
67363;SDS011;54250;45.572;38.086;2022-11-15T03:07:42;1.20;;;0.80;;
67363;SDS011;54250;45.572;38.086;2022-11-15T03:13:58;0.47;;;0.40;;
67363;SDS011;54250;45.572;38.086;2022-11-15T03:19:58;0.95;;;0.70;;
67363;SDS011;54250;45.572;38.086;2022-11-15T03:22:45;7.78;;;1.30;;
67363;SDS011;54250;45.572;38.086;2022-11-15T03:25:32;0.22;;;0.22;;
67363;SDS011;54250;45.572;38.086;2022-11-15T03:28:30;2.60;;;1.23;;
67363;SDS011;54250;45.572;38.086;2022-11-15T03:31:20;2.47;;;1.98;;
67363;SDS011;54250;45.572;38.086;2022-11-15T03:34:32;2.72;;;0.88;;
67363;SDS011;54250;45.572;38.086;2022-11-15T03:37:18;0.68;;;0.57;;
67363;SDS011;54250;45.572;38.086;2022-11-15T03:40:06;0.50;;;0.50;;
67363;SDS011;54250;45.572;38.086;2022-11-15T03:46:19;0.80;;;0.73;;
67363;SDS011;54250;45.572;38.086;2022-11-15T03:49:08;0.20;;;0.20;;
67363;SDS011;54250;45.572;38.086;2022-11-15T03:51:59;0.13;;;0.13;;
67363;SDS011;54250;45.572;38.086;2022-11-15T03:54:55;43.90;;;1.58;;
67363;SDS011;54250;45.572;38.086;2022-11-15T03:57:40;0.20;;;0.20;;
67363;SDS011;54250;45.572;38.086;2022-11-15T04:00:25;0.52;;;0.25;;
67363;SDS011;54250;45.572;38.086;2022-11-15T04:03:11;0.30;;;0.30;;
67363;SDS011;54250;45.572;38.086;2022-11-15T04:05:55;1.98;;;1.08;;
67363;SDS011;54250;45.572;38.086;2022-11-15T04:08:40;0.88;;;0.88;;
67363;SDS011;54250;45.572;38.086;2022-11-15T04:11:24;0.90;;;0.73;;
67363;SDS011;54250;45.572;38.086;2022-11-15T04:14:09;1.90;;;1.70;;
67363;SDS011;54250;45.572;38.086;2022-11-15T04:16:54;0.90;;;0.70;;
67363;SDS011;54250;45.572;38.086;2022-11-15T04:19:38;1.08;;;0.52;;
67363;SDS011;54250;45.572;38.086;2022-11-15T04:22:41;2.90;;;1.63;;
67363;SDS011;54250;45.572;38.086;2022-11-15T04:25:45;0.40;;;0.40;;
67363;SDS011;54250;45.572;38.086;2022-11-15T04:28:30;3.08;;;1.90;;
67363;SDS011;54250;45.572;38.086;2022-11-15T04:31:15;0.25;;;0.25;;
67363;SDS011;54250;45.572;38.086;2022-11-15T04:33:59;1.15;;;0.68;;
67363;SDS011;54250;45.572;38.086;2022-11-15T04:36:44;0.77;;;0.77;;
67363;SDS011;54250;45.572;38.086;2022-11-15T04:39:47;0.73;;;0.63;;
67363;SDS011;54250;45.572;38.086;2022-11-15T04:42:32;0.57;;;0.57;;
67363;SDS011;54250;45.572;38.086;2022-11-15T04:45:16;0.75;;;0.57;;
67363;SDS011;54250;45.572;38.086;2022-11-15T04:48:01;0.82;;;0.82;;
67363;SDS011;54250;45.572;38.086;2022-11-15T04:50:49;1.30;;;1.20;;
67363;SDS011;54250;45.572;38.086;2022-11-15T04:53:33;1.77;;;1.00;;
67363;SDS011;54250;45.572;38.086;2022-11-15T04:56:17;1.50;;;0.98;;
67363;SDS011;54250;45.572;38.086;2022-11-15T04:59:02;1.75;;;1.23;;
67363;SDS011;54250;45.572;38.086;2022-11-15T05:01:46;1.73;;;0.85;;
67363;SDS011;54250;45.572;38.086;2022-11-15T05:04:31;0.52;;;0.52;;
67363;SDS011;54250;45.572;38.086;2022-11-15T05:07:16;0.68;;;0.68;;
67363;SDS011;54250;45.572;38.086;2022-11-15T05:10:00;1.05;;;0.95;;
67363;SDS011;54250;45.572;38.086;2022-11-15T05:12:45;0.30;;;0.30;;
67363;SDS011;54250;45.572;38.086;2022-11-15T05:15:31;3.78;;;2.28;;
67363;SDS011;54250;45.572;38.086;2022-11-15T05:18:15;0.68;;;0.55;;
67363;SDS011;54250;45.572;38.086;2022-11-15T05:21:03;10.05;;;1.08;;
67363;SDS011;54250;45.572;38.086;2022-11-15T05:23:49;0.30;;;0.30;;
67363;SDS011;54250;45.572;38.086;2022-11-15T05:26:33;3.00;;;1.80;;
67363;SDS011;54250;45.572;38.086;2022-11-15T05:29:18;3.92;;;2.72;;
67363;SDS011;54250;45.572;38.086;2022-11-15T05:32:03;10.52;;;3.22;;
67363;SDS011;54250;45.572;38.086;2022-11-15T05:34:50;5.75;;;2.95;;
67363;SDS011;54250;45.572;38.086;2022-11-15T05:37:35;6.00;;;3.25;;
67363;SDS011;54250;45.572;38.086;2022-11-15T05:40:19;1.45;;;1.20;;
67363;SDS011;54250;45.572;38.086;2022-11-15T05:43:04;0.80;;;0.80;;
67363;SDS011;54250;45.572;38.086;2022-11-15T05:45:49;1.33;;;1.00;;
67363;SDS011;54250;45.572;38.086;2022-11-15T05:48:34;1.20;;;0.57;;
67363;SDS011;54250;45.572;38.086;2022-11-15T05:51:21;12.95;;;2.25;;
67363;SDS011;54250;45.572;38.086;2022-11-15T05:54:07;3.30;;;1.67;;
67363;SDS011;54250;45.572;38.086;2022-11-15T05:56:52;2.58;;;1.33;;
67363;SDS011;54250;45.572;38.086;2022-11-15T05:59:39;1.95;;;1.08;;
67363;SDS011;54250;45.572;38.086;2022-11-15T06:02:24;12.27;;;2.72;;
67363;SDS011;54250;45.572;38.086;2022-11-15T06:05:09;4.80;;;2.63;;
67363;SDS011;54250;45.572;38.086;2022-11-15T06:07:57;6.65;;;3.30;;
67363;SDS011;54250;45.572;38.086;2022-11-15T06:10:42;1.75;;;1.63;;
67363;SDS011;54250;45.572;38.086;2022-11-15T06:13:27;3.20;;;2.60;;
67363;SDS011;54250;45.572;38.086;2022-11-15T06:16:11;4.07;;;1.92;;
67363;SDS011;54250;45.572;38.086;2022-11-15T06:18:56;13.48;;;4.53;;
67363;SDS011;54250;45.572;38.086;2022-11-15T06:21:40;1.23;;;0.70;;
67363;SDS011;54250;45.572;38.086;2022-11-15T06:24:25;2.50;;;2.05;;
67363;SDS011;54250;45.572;38.086;2022-11-15T06:27:13;3.65;;;2.10;;
67363;SDS011;54250;45.572;38.086;2022-11-15T06:29:57;2.90;;;1.67;;
67363;SDS011;54250;45.572;38.086;2022-11-15T06:32:42;3.90;;;1.83;;
67363;SDS011;54250;45.572;38.086;2022-11-15T06:35:26;4.25;;;2.47;;
67363;SDS011;54250;45.572;38.086;2022-11-15T06:38:11;2.22;;;1.77;;
67363;SDS011;54250;45.572;38.086;2022-11-15T06:41:01;6.40;;;2.25;;
67363;SDS011;54250;45.572;38.086;2022-11-15T06:43:46;5.22;;;2.40;;
67363;SDS011;54250;45.572;38.086;2022-11-15T06:46:32;10.23;;;3.58;;
67363;SDS011;54250;45.572;38.086;2022-11-15T06:49:17;3.88;;;2.13;;
67363;SDS011;54250;45.572;38.086;2022-11-15T06:52:01;3.95;;;2.22;;
67363;SDS011;54250;45.572;38.086;2022-11-15T06:54:46;13.55;;;2.92;;
67363;SDS011;54250;45.572;38.086;2022-11-15T06:57:30;3.08;;;2.42;;
67363;SDS011;54250;45.572;38.086;2022-11-15T07:00:16;2.30;;;1.77;;
67363;SDS011;54250;45.572;38.086;2022-11-15T07:03:03;4.13;;;1.58;;
67363;SDS011;54250;45.572;38.086;2022-11-15T07:05:51;4.03;;;2.05;;
67363;SDS011;54250;45.572;38.086;2022-11-15T07:08:37;3.78;;;1.95;;
67363;SDS011;54250;45.572;38.086;2022-11-15T07:11:21;3.95;;;1.98;;
67363;SDS011;54250;45.572;38.086;2022-11-15T07:14:06;6.90;;;2.85;;
67363;SDS011;54250;45.572;38.086;2022-11-15T07:16:50;2.78;;;2.08;;
67363;SDS011;54250;45.572;38.086;2022-11-15T07:19:35;3.13;;;1.67;;
67363;SDS011;54250;45.572;38.086;2022-11-15T07:22:19;2.65;;;1.55;;
67363;SDS011;54250;45.572;38.086;2022-11-15T07:25:04;1.77;;;1.13;;
67363;SDS011;54250;45.572;38.086;2022-11-15T07:27:53;5.15;;;2.42;;
67363;SDS011;54250;45.572;38.086;2022-11-15T07:30:42;3.13;;;2.40;;
67363;SDS011;54250;45.572;38.086;2022-11-15T07:33:26;20.48;;;2.63;;
67363;SDS011;54250;45.572;38.086;2022-11-15T07:36:11;5.75;;;2.38;;
67363;SDS011;54250;45.572;38.086;2022-11-15T07:38:55;2.00;;;1.55;;
67363;SDS011;54250;45.572;38.086;2022-11-15T07:41:40;3.45;;;1.70;;
67363;SDS011;54250;45.572;38.086;2022-11-15T07:44:25;2.28;;;1.60;;
67363;SDS011;54250;45.572;38.086;2022-11-15T07:47:09;5.25;;;2.67;;
67363;SDS011;54250;45.572;38.086;2022-11-15T07:49:54;4.15;;;2.00;;
67363;SDS011;54250;45.572;38.086;2022-11-15T07:52:38;3.45;;;2.15;;
67363;SDS011;54250;45.572;38.086;2022-11-15T07:55:23;2.08;;;1.80;;
67363;SDS011;54250;45.572;38.086;2022-11-15T07:58:10;6.93;;;2.78;;
67363;SDS011;54250;45.572;38.086;2022-11-15T08:00:56;6.82;;;2.40;;
67363;SDS011;54250;45.572;38.086;2022-11-15T08:03:40;4.32;;;3.03;;
67363;SDS011;54250;45.572;38.086;2022-11-15T08:06:25;4.90;;;2.55;;
67363;SDS011;54250;45.572;38.086;2022-11-15T08:09:09;14.95;;;2.15;;
67363;SDS011;54250;45.572;38.086;2022-11-15T08:11:54;8.13;;;3.15;;
67363;SDS011;54250;45.572;38.086;2022-11-15T08:14:38;8.52;;;3.30;;
67363;SDS011;54250;45.572;38.086;2022-11-15T08:17:23;21.42;;;7.20;;
67363;SDS011;54250;45.572;38.086;2022-11-15T08:20:08;8.52;;;4.88;;
67363;SDS011;54250;45.572;38.086;2022-11-15T08:22:53;16.50;;;5.35;;
67363;SDS011;54250;45.572;38.086;2022-11-15T08:25:38;7.93;;;3.55;;
67363;SDS011;54250;45.572;38.086;2022-11-15T08:28:22;4.72;;;2.25;;
67363;SDS011;54250;45.572;38.086;2022-11-15T08:31:11;5.88;;;4.20;;
67363;SDS011;54250;45.572;38.086;2022-11-15T08:34:00;9.77;;;2.88;;
67363;SDS011;54250;45.572;38.086;2022-11-15T08:36:46;9.38;;;1.95;;
67363;SDS011;54250;45.572;38.086;2022-11-15T08:39:30;6.65;;;2.30;;
67363;SDS011;54250;45.572;38.086;2022-11-15T08:42:15;4.10;;;2.00;;
67363;SDS011;54250;45.572;38.086;2022-11-15T08:45:00;2.20;;;1.40;;
67363;SDS011;54250;45.572;38.086;2022-11-15T08:47:44;3.25;;;1.60;;
67363;SDS011;54250;45.572;38.086;2022-11-15T08:50:29;4.20;;;2.35;;
67363;SDS011;54250;45.572;38.086;2022-11-15T08:53:13;1.75;;;1.58;;
67363;SDS011;54250;45.572;38.086;2022-11-15T08:55:58;2.75;;;1.70;;
67363;SDS011;54250;45.572;38.086;2022-11-15T08:58:46;2.08;;;1.40;;
67363;SDS011;54250;45.572;38.086;2022-11-15T09:01:31;1.98;;;1.33;;
67363;SDS011;54250;45.572;38.086;2022-11-15T09:04:16;5.93;;;1.40;;
67363;SDS011;54250;45.572;38.086;2022-11-15T09:07:00;1.50;;;0.85;;
67363;SDS011;54250;45.572;38.086;2022-11-15T09:09:45;7.45;;;3.15;;
67363;SDS011;54250;45.572;38.086;2022-11-15T09:12:30;1.42;;;1.20;;
67363;SDS011;54250;45.572;38.086;2022-11-15T09:15:15;9.05;;;1.70;;
67363;SDS011;54250;45.572;38.086;2022-11-15T09:18:00;1.27;;;0.95;;
67363;SDS011;54250;45.572;38.086;2022-11-15T09:20:44;0.73;;;0.73;;
67363;SDS011;54250;45.572;38.086;2022-11-15T09:23:29;0.82;;;0.73;;
67363;SDS011;54250;45.572;38.086;2022-11-15T09:26:15;1.48;;;1.17;;
67363;SDS011;54250;45.572;38.086;2022-11-15T09:29:00;6.97;;;1.88;;
67363;SDS011;54250;45.572;38.086;2022-11-15T09:31:45;8.93;;;2.67;;
67363;SDS011;54250;45.572;38.086;2022-11-15T09:34:30;8.57;;;2.47;;
67363;SDS011;54250;45.572;38.086;2022-11-15T09:37:15;5.70;;;1.58;;
67363;SDS011;54250;45.572;38.086;2022-11-15T09:40:00;2.75;;;1.45;;
67363;SDS011;54250;45.572;38.086;2022-11-15T09:46:33;2.95;;;1.27;;
67363;SDS011;54250;45.572;38.086;2022-11-15T09:49:31;3.13;;;1.38;;
67363;SDS011;54250;45.572;38.086;2022-11-15T09:52:23;4.65;;;1.20;;
67363;SDS011;54250;45.572;38.086;2022-11-15T09:54:50;5.97;;;2.35;;
67363;SDS011;54250;45.572;38.086;2022-11-15T10:02:43;2.75;;;1.10;;
67363;SDS011;54250;45.572;38.086;2022-11-15T10:05:39;3.03;;;1.40;;
67363;SDS011;54250;45.572;38.086;2022-11-15T10:11:10;0.98;;;0.82;;
67363;SDS011;54250;45.572;38.086;2022-11-15T10:13:41;5.43;;;1.55;;
67363;SDS011;54250;45.572;38.086;2022-11-15T10:21:45;1.33;;;1.00;;
67363;SDS011;54250;45.572;38.086;2022-11-15T10:24:25;3.47;;;1.80;;
67363;SDS011;54250;45.572;38.086;2022-11-15T10:26:54;7.85;;;1.90;;
67363;SDS011;54250;45.572;38.086;2022-11-15T10:29:22;2.97;;;1.67;;
67363;SDS011;54250;45.572;38.086;2022-11-15T10:31:49;3.63;;;1.20;;
67363;SDS011;54250;45.572;38.086;2022-11-15T10:34:16;6.57;;;1.48;;
67363;SDS011;54250;45.572;38.086;2022-11-15T10:36:47;2.58;;;1.02;;
67363;SDS011;54250;45.572;38.086;2022-11-15T10:39:23;2.80;;;1.17;;
67363;SDS011;54250;45.572;38.086;2022-11-15T10:41:51;5.47;;;1.48;;
67363;SDS011;54250;45.572;38.086;2022-11-15T10:49:21;1.23;;;1.05;;
67363;SDS011;54250;45.572;38.086;2022-11-15T10:51:58;1.17;;;0.70;;
67363;SDS011;54250;45.572;38.086;2022-11-15T10:54:44;2.42;;;1.38;;
67363;SDS011;54250;45.572;38.086;2022-11-15T10:57:23;5.97;;;1.10;;
67363;SDS011;54250;45.572;38.086;2022-11-15T10:59:53;1.83;;;1.10;;
67363;SDS011;54250;45.572;38.086;2022-11-15T11:05:00;1.83;;;0.65;;
67363;SDS011;54250;45.572;38.086;2022-11-15T11:07:30;0.73;;;0.57;;
67363;SDS011;54250;45.572;38.086;2022-11-15T11:09:59;6.60;;;2.70;;
67363;SDS011;54250;45.572;38.086;2022-11-15T11:12:27;2.28;;;1.20;;
67363;SDS011;54250;45.572;38.086;2022-11-15T11:14:57;2.05;;;1.25;;
67363;SDS011;54250;45.572;38.086;2022-11-15T11:23:02;6.93;;;1.95;;
67363;SDS011;54250;45.572;38.086;2022-11-15T11:37:37;7.35;;;2.60;;
67363;SDS011;54250;45.572;38.086;2022-11-15T11:40:35;6.75;;;3.05;;
67363;SDS011;54250;45.572;38.086;2022-11-15T11:43:18;1.02;;;0.93;;
67363;SDS011;54250;45.572;38.086;2022-11-15T11:46:25;3.20;;;1.70;;
67363;SDS011;54250;45.572;38.086;2022-11-15T11:49:10;4.03;;;1.40;;
67363;SDS011;54250;45.572;38.086;2022-11-15T11:51:42;1.58;;;1.35;;
67363;SDS011;54250;45.572;38.086;2022-11-15T11:54:28;4.03;;;2.35;;
67363;SDS011;54250;45.572;38.086;2022-11-15T11:57:03;3.47;;;1.48;;
67363;SDS011;54250;45.572;38.086;2022-11-15T11:59:48;6.68;;;2.97;;
67363;SDS011;54250;45.572;38.086;2022-11-15T12:02:41;6.28;;;2.97;;
67363;SDS011;54250;45.572;38.086;2022-11-15T12:05:16;4.25;;;2.40;;
67363;SDS011;54250;45.572;38.086;2022-11-15T12:10:25;4.50;;;2.95;;
67363;SDS011;54250;45.572;38.086;2022-11-15T12:13:04;8.15;;;2.08;;
67363;SDS011;54250;45.572;38.086;2022-11-15T12:18:19;8.13;;;4.22;;
67363;SDS011;54250;45.572;38.086;2022-11-15T12:20:55;4.38;;;2.22;;
67363;SDS011;54250;45.572;38.086;2022-11-15T12:23:28;7.53;;;4.32;;
67363;SDS011;54250;45.572;38.086;2022-11-15T12:25:59;14.25;;;3.70;;
67363;SDS011;54250;45.572;38.086;2022-11-15T12:31:15;27.05;;;9.68;;
67363;SDS011;54250;45.572;38.086;2022-11-15T12:36:46;39.25;;;9.75;;
67363;SDS011;54250;45.572;38.086;2022-11-15T12:39:14;12.70;;;6.03;;
67363;SDS011;54250;45.572;38.086;2022-11-15T12:41:42;16.45;;;6.25;;
67363;SDS011;54250;45.572;38.086;2022-11-15T12:47:00;16.63;;;6.22;;
67363;SDS011;54250;45.572;38.086;2022-11-15T12:52:04;37.55;;;11.48;;
67363;SDS011;54250;45.572;38.086;2022-11-15T13:04:55;30.52;;;13.32;;
67363;SDS011;54250;45.572;38.086;2022-11-15T13:25:18;8.40;;;4.70;;
67363;SDS011;54250;45.572;38.086;2022-11-15T13:28:09;4.53;;;2.65;;
67363;SDS011;54250;45.572;38.086;2022-11-15T13:30:58;8.38;;;3.25;;
67363;SDS011;54250;45.572;38.086;2022-11-15T13:33:33;10.02;;;4.00;;
67363;SDS011;54250;45.572;38.086;2022-11-15T13:36:06;5.55;;;3.10;;
67363;SDS011;54250;45.572;38.086;2022-11-15T13:38:42;4.70;;;1.80;;
67363;SDS011;54250;45.572;38.086;2022-11-15T13:41:16;6.30;;;2.50;;
67363;SDS011;54250;45.572;38.086;2022-11-15T13:43:46;11.90;;;4.95;;
67363;SDS011;54250;45.572;38.086;2022-11-15T13:48:51;25.58;;;10.45;;
67363;SDS011;54250;45.572;38.086;2022-11-15T13:51:30;13.60;;;8.75;;
67363;SDS011;54250;45.572;38.086;2022-11-15T13:54:03;9.57;;;4.38;;
67363;SDS011;54250;45.572;38.086;2022-11-15T13:56:35;5.57;;;3.30;;
67363;SDS011;54250;45.572;38.086;2022-11-15T13:59:09;9.10;;;2.67;;
67363;SDS011;54250;45.572;38.086;2022-11-15T14:01:43;8.27;;;1.98;;
67363;SDS011;54250;45.572;38.086;2022-11-15T14:04:11;5.95;;;1.42;;
67363;SDS011;54250;45.572;38.086;2022-11-15T14:07:14;1.60;;;1.15;;
67363;SDS011;54250;45.572;38.086;2022-11-15T14:09:41;2.08;;;1.70;;
67363;SDS011;54250;45.572;38.086;2022-11-15T14:14:55;7.65;;;2.58;;
67363;SDS011;54250;45.572;38.086;2022-11-15T14:19:54;3.85;;;2.80;;
67363;SDS011;54250;45.572;38.086;2022-11-15T14:22:21;3.72;;;2.10;;
67363;SDS011;54250;45.572;38.086;2022-11-15T14:27:39;2.85;;;2.45;;
67363;SDS011;54250;45.572;38.086;2022-11-15T14:30:12;7.35;;;2.08;;
67363;SDS011;54250;45.572;38.086;2022-11-15T14:32:50;1.85;;;0.65;;
67363;SDS011;54250;45.572;38.086;2022-11-15T14:35:17;2.60;;;1.27;;
67363;SDS011;54250;45.572;38.086;2022-11-15T14:37:45;1.00;;;0.95;;
67363;SDS011;54250;45.572;38.086;2022-11-15T14:40:13;0.85;;;0.82;;
67363;SDS011;54250;45.572;38.086;2022-11-15T14:42:41;1.45;;;1.00;;
67363;SDS011;54250;45.572;38.086;2022-11-15T14:45:12;2.08;;;1.02;;
67363;SDS011;54250;45.572;38.086;2022-11-15T14:47:40;5.95;;;1.35;;
67363;SDS011;54250;45.572;38.086;2022-11-15T14:50:11;4.32;;;2.25;;
67363;SDS011;54250;45.572;38.086;2022-11-15T14:52:38;3.35;;;1.52;;
67363;SDS011;54250;45.572;38.086;2022-11-15T14:55:10;1.17;;;0.82;;
67363;SDS011;54250;45.572;38.086;2022-11-15T14:57:45;2.65;;;2.05;;
67363;SDS011;54250;45.572;38.086;2022-11-15T15:00:12;6.10;;;3.55;;
67363;SDS011;54250;45.572;38.086;2022-11-15T15:02:40;3.35;;;1.88;;
67363;SDS011;54250;45.572;38.086;2022-11-15T15:05:18;2.13;;;1.30;;
67363;SDS011;54250;45.572;38.086;2022-11-15T15:08:05;3.22;;;1.55;;
67363;SDS011;54250;45.572;38.086;2022-11-15T15:10:32;4.93;;;1.88;;
67363;SDS011;54250;45.572;38.086;2022-11-15T15:13:01;3.00;;;1.20;;
67363;SDS011;54250;45.572;38.086;2022-11-15T15:15:32;1.40;;;1.23;;
67363;SDS011;54250;45.572;38.086;2022-11-15T15:17:59;0.47;;;0.47;;
67363;SDS011;54250;45.572;38.086;2022-11-15T15:20:26;2.25;;;2.03;;
67363;SDS011;54250;45.572;38.086;2022-11-15T15:22:52;2.40;;;1.85;;
67363;SDS011;54250;45.572;38.086;2022-11-15T15:25:32;1.50;;;0.77;;
67363;SDS011;54250;45.572;38.086;2022-11-15T15:28:00;5.78;;;1.85;;
67363;SDS011;54250;45.572;38.086;2022-11-15T15:30:29;1.65;;;1.25;;
67363;SDS011;54250;45.572;38.086;2022-11-15T15:32:56;8.93;;;3.50;;
67363;SDS011;54250;45.572;38.086;2022-11-15T15:35:29;1.52;;;1.30;;
67363;SDS011;54250;45.572;38.086;2022-11-15T15:37:57;21.00;;;7.55;;
67363;SDS011;54250;45.572;38.086;2022-11-15T15:40:24;7.38;;;4.72;;
67363;SDS011;54250;45.572;38.086;2022-11-15T15:42:51;21.52;;;5.88;;
67363;SDS011;54250;45.572;38.086;2022-11-15T15:45:17;4.85;;;2.70;;
67363;SDS011;54250;45.572;38.086;2022-11-15T15:47:44;7.65;;;2.90;;
67363;SDS011;54250;45.572;38.086;2022-11-15T15:52:56;17.60;;;4.47;;
67363;SDS011;54250;45.572;38.086;2022-11-15T15:55:24;4.88;;;3.00;;
67363;SDS011;54250;45.572;38.086;2022-11-15T15:57:51;5.00;;;2.47;;
67363;SDS011;54250;45.572;38.086;2022-11-15T16:00:17;2.90;;;2.03;;
67363;SDS011;54250;45.572;38.086;2022-11-15T16:02:44;7.35;;;3.15;;
67363;SDS011;54250;45.572;38.086;2022-11-15T16:05:11;2.22;;;1.42;;
67363;SDS011;54250;45.572;38.086;2022-11-15T16:07:38;15.77;;;2.08;;
67363;SDS011;54250;45.572;38.086;2022-11-15T16:12:46;3.70;;;2.08;;
67363;SDS011;54250;45.572;38.086;2022-11-15T16:15:12;1.95;;;0.88;;
67363;SDS011;54250;45.572;38.086;2022-11-15T16:17:40;3.95;;;2.90;;
67363;SDS011;54250;45.572;38.086;2022-11-15T16:23:06;3.55;;;2.95;;
67363;SDS011;54250;45.572;38.086;2022-11-15T16:25:37;2.85;;;1.88;;
67363;SDS011;54250;45.572;38.086;2022-11-15T16:31:02;7.10;;;4.07;;
67363;SDS011;54250;45.572;38.086;2022-11-15T16:33:30;13.75;;;3.88;;
67363;SDS011;54250;45.572;38.086;2022-11-15T16:35:57;9.00;;;5.05;;
67363;SDS011;54250;45.572;38.086;2022-11-15T16:38:23;15.90;;;4.60;;
67363;SDS011;54250;45.572;38.086;2022-11-15T16:40:49;8.27;;;4.63;;
67363;SDS011;54250;45.572;38.086;2022-11-15T16:43:15;10.43;;;3.83;;
67363;SDS011;54250;45.572;38.086;2022-11-15T16:45:41;2.05;;;1.38;;
67363;SDS011;54250;45.572;38.086;2022-11-15T16:48:15;6.88;;;2.28;;
67363;SDS011;54250;45.572;38.086;2022-11-15T16:53:21;6.20;;;2.00;;
67363;SDS011;54250;45.572;38.086;2022-11-15T16:55:48;5.65;;;2.67;;
67363;SDS011;54250;45.572;38.086;2022-11-15T16:58:14;0.43;;;0.43;;
67363;SDS011;54250;45.572;38.086;2022-11-15T17:00:40;2.10;;;1.52;;
67363;SDS011;54250;45.572;38.086;2022-11-15T17:03:06;1.50;;;1.35;;
67363;SDS011;54250;45.572;38.086;2022-11-15T17:05:33;2.15;;;1.95;;
67363;SDS011;54250;45.572;38.086;2022-11-15T17:07:59;2.05;;;1.15;;
67363;SDS011;54250;45.572;38.086;2022-11-15T17:10:25;3.08;;;1.95;;
67363;SDS011;54250;45.572;38.086;2022-11-15T17:12:54;1.98;;;1.60;;
67363;SDS011;54250;45.572;38.086;2022-11-15T17:15:21;1.85;;;1.65;;
67363;SDS011;54250;45.572;38.086;2022-11-15T17:17:52;3.83;;;2.05;;
67363;SDS011;54250;45.572;38.086;2022-11-15T17:20:20;3.08;;;2.65;;
67363;SDS011;54250;45.572;38.086;2022-11-15T17:22:48;2.65;;;1.70;;
67363;SDS011;54250;45.572;38.086;2022-11-15T17:25:14;11.95;;;3.70;;
67363;SDS011;54250;45.572;38.086;2022-11-15T17:27:40;9.55;;;5.05;;
67363;SDS011;54250;45.572;38.086;2022-11-15T17:30:08;14.68;;;6.13;;
67363;SDS011;54250;45.572;38.086;2022-11-15T17:32:36;19.98;;;5.68;;
67363;SDS011;54250;45.572;38.086;2022-11-15T17:35:03;12.98;;;4.90;;
67363;SDS011;54250;45.572;38.086;2022-11-15T17:37:33;18.88;;;5.78;;
67363;SDS011;54250;45.572;38.086;2022-11-15T17:40:00;12.68;;;5.75;;
67363;SDS011;54250;45.572;38.086;2022-11-15T17:42:26;7.45;;;5.65;;
67363;SDS011;54250;45.572;38.086;2022-11-15T17:44:52;12.82;;;3.42;;
67363;SDS011;54250;45.572;38.086;2022-11-15T17:47:18;11.93;;;6.90;;
67363;SDS011;54250;45.572;38.086;2022-11-15T17:49:45;10.85;;;4.40;;
67363;SDS011;54250;45.572;38.086;2022-11-15T17:52:11;13.80;;;4.00;;
67363;SDS011;54250;45.572;38.086;2022-11-15T17:54:37;16.02;;;4.13;;
67363;SDS011;54250;45.572;38.086;2022-11-15T17:57:03;11.10;;;6.10;;
67363;SDS011;54250;45.572;38.086;2022-11-15T17:59:29;12.20;;;3.80;;
67363;SDS011;54250;45.572;38.086;2022-11-15T18:01:56;3.42;;;2.50;;
67363;SDS011;54250;45.572;38.086;2022-11-15T18:04:22;10.75;;;5.50;;
67363;SDS011;54250;45.572;38.086;2022-11-15T18:06:53;10.18;;;5.35;;
67363;SDS011;54250;45.572;38.086;2022-11-15T18:09:20;12.50;;;6.15;;
67363;SDS011;54250;45.572;38.086;2022-11-15T18:11:46;6.25;;;2.72;;
67363;SDS011;54250;45.572;38.086;2022-11-15T18:14:16;4.32;;;3.65;;
67363;SDS011;54250;45.572;38.086;2022-11-15T18:16:44;15.95;;;6.80;;
67363;SDS011;54250;45.572;38.086;2022-11-15T18:19:11;8.60;;;4.40;;